sensor_id;sensor_type;location;lat;lon;timestamp;pressure;altitude;pressure_sealevel;temperature;humidity
50696;BME280;36665;51.786;21.594;2023-07-24T00:04:18;96527.45;;;20.18;60.57
50696;BME280;36665;51.786;21.594;2023-07-24T00:12:41;96563.61;;;20.28;60.46
50696;BME280;36665;51.786;21.594;2023-07-24T00:21:04;96579.96;;;20.31;60.81
50696;BME280;36665;51.786;21.594;2023-07-24T00:29:27;96579.37;;;20.32;60.47
50696;BME280;36665;51.786;21.594;2023-07-24T00:37:50;96561.61;;;20.27;60.63
50696;BME280;36665;51.786;21.594;2023-07-24T00:46:14;96528.98;;;20.20;60.60
50696;BME280;36665;51.786;21.594;2023-07-24T00:54:38;96490.13;;;20.11;60.55
50696;BME280;36665;51.786;21.594;2023-07-24T01:03:01;96439.66;;;19.99;60.48
50696;BME280;36665;51.786;21.594;2023-07-24T01:11:56;96381.69;;;19.85;60.45
50696;BME280;36665;51.786;21.594;2023-07-24T01:20:26;96314.50;;;19.69;60.39
50696;BME280;36665;51.786;21.594;2023-07-24T01:28:51;96227.63;;;19.48;60.47
50696;BME280;36665;51.786;21.594;2023-07-24T01:37:14;96128.55;;;19.24;60.36
50696;BME280;36665;51.786;21.594;2023-07-24T01:45:39;96042.48;;;19.04;60.55
50696;BME280;36665;51.786;21.594;2023-07-24T01:54:02;95991.73;;;18.91;60.39
50696;BME280;36665;51.786;21.594;2023-07-24T02:02:25;95962.59;;;18.84;60.19
50696;BME280;36665;51.786;21.594;2023-07-24T02:10:49;95941.19;;;18.80;60.47
50696;BME280;36665;51.786;21.594;2023-07-24T02:19:13;95940.34;;;18.80;60.34
50696;BME280;36665;51.786;21.594;2023-07-24T02:27:36;95924.95;;;18.76;60.17
50696;BME280;36665;51.786;21.594;2023-07-24T02:36:02;95905.20;;;18.72;60.33
50696;BME280;36665;51.786;21.594;2023-07-24T02:44:27;95908.30;;;18.73;60.18
50696;BME280;36665;51.786;21.594;2023-07-24T02:52:51;95915.18;;;18.74;60.27
50696;BME280;36665;51.786;21.594;2023-07-24T03:01:14;95881.33;;;18.67;60.29
50696;BME280;36665;51.786;21.594;2023-07-24T03:09:38;95826.54;;;18.52;60.22
50696;BME280;36665;51.786;21.594;2023-07-24T03:18:01;95731.62;;;18.29;60.32
50696;BME280;36665;51.786;21.594;2023-07-24T03:26:24;95627.98;;;18.04;60.23
50696;BME280;36665;51.786;21.594;2023-07-24T03:34:47;95595.27;;;17.97;60.25
50696;BME280;36665;51.786;21.594;2023-07-24T03:43:10;95604.09;;;17.99;60.28
50696;BME280;36665;51.786;21.594;2023-07-24T03:51:33;95649.52;;;18.10;60.10
50696;BME280;36665;51.786;21.594;2023-07-24T03:59:56;95688.95;;;18.20;60.36
50696;BME280;36665;51.786;21.594;2023-07-24T04:08:19;95776.70;;;18.42;60.22
50696;BME280;36665;51.786;21.594;2023-07-24T04:16:43;96010.47;;;18.99;60.38
50696;BME280;36665;51.786;21.594;2023-07-24T04:25:09;96301.80;;;19.71;60.50
50696;BME280;36665;51.786;21.594;2023-07-24T04:33:33;96454.39;;;20.07;60.75
50696;BME280;36665;51.786;21.594;2023-07-24T04:41:56;96522.84;;;20.22;60.59
50696;BME280;36665;51.786;21.594;2023-07-24T04:50:19;96631.53;;;20.49;60.70
50696;BME280;36665;51.786;21.594;2023-07-24T04:58:42;96865.23;;;21.06;60.79
50696;BME280;36665;51.786;21.594;2023-07-24T05:07:05;97200.67;;;21.85;61.04
50696;BME280;36665;51.786;21.594;2023-07-24T05:15:28;97388.71;;;22.28;60.92
50696;BME280;36665;51.786;21.594;2023-07-24T05:23:51;97423.04;;;22.35;60.88
50696;BME280;36665;51.786;21.594;2023-07-24T05:32:14;97558.06;;;22.66;61.00
50696;BME280;36665;51.786;21.594;2023-07-24T05:40:39;97629.05;;;22.83;61.02
50696;BME280;36665;51.786;21.594;2023-07-24T05:49:08;97594.56;;;22.73;61.10
50696;BME280;36665;51.786;21.594;2023-07-24T05:57:31;97612.64;;;22.78;61.32
50696;BME280;36665;51.786;21.594;2023-07-24T06:05:55;97699.45;;;22.98;61.33
50696;BME280;36665;51.786;21.594;2023-07-24T06:14:18;97783.91;;;23.17;61.25
50696;BME280;36665;51.786;21.594;2023-07-24T06:22:41;97787.95;;;23.18;61.31
50696;BME280;36665;51.786;21.594;2023-07-24T06:31:05;97789.92;;;23.17;61.43
50696;BME280;36665;51.786;21.594;2023-07-24T06:39:28;97833.62;;;23.28;61.30
50696;BME280;36665;51.786;21.594;2023-07-24T06:47:56;97934.98;;;23.52;61.15
50696;BME280;36665;51.786;21.594;2023-07-24T06:56:19;97976.86;;;23.61;61.36
50696;BME280;36665;51.786;21.594;2023-07-24T07:04:42;97965.58;;;23.59;61.54
50696;BME280;36665;51.786;21.594;2023-07-24T07:13:06;97940.10;;;23.52;61.52
50696;BME280;36665;51.786;21.594;2023-07-24T07:21:29;97879.52;;;23.38;61.44
50696;BME280;36665;51.786;21.594;2023-07-24T07:29:53;97926.72;;;23.49;61.29
50696;BME280;36665;51.786;21.594;2023-07-24T07:38:16;98141.48;;;23.98;61.46
50696;BME280;36665;51.786;21.594;2023-07-24T07:46:39;98361.17;;;24.48;61.46
50696;BME280;36665;51.786;21.594;2023-07-24T07:55:03;98407.54;;;24.59;61.40
50696;BME280;36665;51.786;21.594;2023-07-24T08:03:26;98372.86;;;24.50;61.49
50696;BME280;36665;51.786;21.594;2023-07-24T08:11:50;98377.77;;;24.51;61.49
50696;BME280;36665;51.786;21.594;2023-07-24T08:20:34;98423.10;;;24.61;61.47
50696;BME280;36665;51.786;21.594;2023-07-24T08:28:58;98454.60;;;24.68;61.59
50696;BME280;36665;51.786;21.594;2023-07-24T08:37:21;98504.52;;;24.80;61.36
50696;BME280;36665;51.786;21.594;2023-07-24T08:45:44;98574.66;;;24.96;61.35
50696;BME280;36665;51.786;21.594;2023-07-24T08:54:08;98738.31;;;25.32;61.51
50696;BME280;36665;51.786;21.594;2023-07-24T09:02:33;98962.41;;;25.83;61.67
50696;BME280;36665;51.786;21.594;2023-07-24T09:11:03;99170.71;;;26.30;61.60
50696;BME280;36665;51.786;21.594;2023-07-24T09:19:26;99436.45;;;26.87;61.71
50696;BME280;36665;51.786;21.594;2023-07-24T09:27:49;99626.52;;;27.29;61.82
50696;BME280;36665;51.786;21.594;2023-07-24T09:36:12;99832.75;;;27.74;61.54
50696;BME280;36665;51.786;21.594;2023-07-24T09:44:36;99915.01;;;27.91;61.82
50696;BME280;36665;51.786;21.594;2023-07-24T09:52:59;99859.80;;;27.78;61.65
50696;BME280;36665;51.786;21.594;2023-07-24T10:01:23;99949.68;;;27.98;61.89
50696;BME280;36665;51.786;21.594;2023-07-24T10:09:46;99928.39;;;27.93;61.76
50696;BME280;36665;51.786;21.594;2023-07-24T10:18:10;99976.67;;;28.04;61.76
50696;BME280;36665;51.786;21.594;2023-07-24T10:26:33;100162.83;;;28.44;61.63
50696;BME280;36665;51.786;21.594;2023-07-24T10:35:07;100353.61;;;28.86;61.71
50696;BME280;36665;51.786;21.594;2023-07-24T10:52:10;100326.60;;;28.80;61.54
50696;BME280;36665;51.786;21.594;2023-07-24T11:00:33;100493.80;;;29.16;61.69
50696;BME280;36665;51.786;21.594;2023-07-24T11:08:58;100572.96;;;29.33;61.61
50696;BME280;36665;51.786;21.594;2023-07-24T11:17:36;100498.13;;;29.16;61.51
50696;BME280;36665;51.786;21.594;2023-07-24T11:26:00;100477.24;;;29.13;61.54
50696;BME280;36665;51.786;21.594;2023-07-24T11:34:24;100571.44;;;29.33;61.56
50696;BME280;36665;51.786;21.594;2023-07-24T11:42:48;100565.86;;;29.33;61.37
50696;BME280;36665;51.786;21.594;2023-07-24T11:51:12;100583.20;;;29.37;61.22
50696;BME280;36665;51.786;21.594;2023-07-24T11:59:38;100675.93;;;29.56;61.32
50696;BME280;36665;51.786;21.594;2023-07-24T12:08:02;100750.44;;;29.72;61.22
50696;BME280;36665;51.786;21.594;2023-07-24T12:16:28;100666.73;;;29.56;61.33
50696;BME280;36665;51.786;21.594;2023-07-24T12:24:52;100705.39;;;29.65;61.12
50696;BME280;36665;51.786;21.594;2023-07-24T12:33:15;100667.56;;;29.57;61.00
50696;BME280;36665;51.786;21.594;2023-07-24T12:41:39;100595.20;;;29.42;60.87
50696;BME280;36665;51.786;21.594;2023-07-24T12:50:02;100569.70;;;29.38;60.82
50696;BME280;36665;51.786;21.594;2023-07-24T12:58:29;100511.11;;;29.26;60.87
50696;BME280;36665;51.786;21.594;2023-07-24T13:06:52;100426.52;;;29.09;60.72
50696;BME280;36665;51.786;21.594;2023-07-24T13:15:16;100555.89;;;29.38;60.72
50696;BME280;36665;51.786;21.594;2023-07-24T13:23:40;100663.75;;;29.60;60.65
50696;BME280;36665;51.786;21.594;2023-07-24T13:32:03;100522.81;;;29.32;60.50
50696;BME280;36665;51.786;21.594;2023-07-24T13:40:26;100392.91;;;29.05;60.38
50696;BME280;36665;51.786;21.594;2023-07-24T13:48:49;100297.37;;;28.85;60.27
50696;BME280;36665;51.786;21.594;2023-07-24T13:57:13;100248.09;;;28.76;60.06
50696;BME280;36665;51.786;21.594;2023-07-24T14:05:37;100481.02;;;29.26;60.20
50696;BME280;36665;51.786;21.594;2023-07-24T14:14:00;100754.17;;;29.86;60.23
50696;BME280;36665;51.786;21.594;2023-07-24T14:22:23;100837.42;;;30.03;60.06
50696;BME280;36665;51.786;21.594;2023-07-24T14:30:50;100848.08;;;30.06;60.09
50696;BME280;36665;51.786;21.594;2023-07-24T14:39:13;100922.73;;;30.23;60.13
50696;BME280;36665;51.786;21.594;2023-07-24T14:47:36;100819.42;;;30.01;59.95
50696;BME280;36665;51.786;21.594;2023-07-24T14:55:59;100705.83;;;29.78;59.82
50696;BME280;36665;51.786;21.594;2023-07-24T15:04:22;100706.58;;;29.79;59.80
50696;BME280;36665;51.786;21.594;2023-07-24T15:12:46;100792.14;;;29.99;59.67
50696;BME280;36665;51.786;21.594;2023-07-24T15:21:10;100743.52;;;29.88;59.64
50696;BME280;36665;51.786;21.594;2023-07-24T15:29:36;100580.73;;;29.55;59.42
50696;BME280;36665;51.786;21.594;2023-07-24T15:37:59;100500.84;;;29.39;59.37
50696;BME280;36665;51.786;21.594;2023-07-24T15:46:24;100436.76;;;29.27;59.33
50696;BME280;36665;51.786;21.594;2023-07-24T15:54:47;100441.90;;;29.29;58.99
50696;BME280;36665;51.786;21.594;2023-07-24T16:03:11;100466.77;;;29.35;59.11
50696;BME280;36665;51.786;21.594;2023-07-24T16:11:34;100497.98;;;29.43;58.77
50696;BME280;36665;51.786;21.594;2023-07-24T16:19:57;100436.54;;;29.30;58.88
50696;BME280;36665;51.786;21.594;2023-07-24T16:28:21;100322.49;;;29.07;58.85
50696;BME280;36665;51.786;21.594;2023-07-24T16:36:45;100200.39;;;28.82;58.71
50696;BME280;36665;51.786;21.594;2023-07-24T16:45:09;100077.96;;;28.56;58.53
50696;BME280;36665;51.786;21.594;2023-07-24T16:53:50;99930.92;;;28.24;58.68
50696;BME280;36665;51.786;21.594;2023-07-24T17:02:13;99725.77;;;27.81;58.54
50696;BME280;36665;51.786;21.594;2023-07-24T17:10:42;99478.86;;;27.27;58.28
50696;BME280;36665;51.786;21.594;2023-07-24T17:19:06;99248.67;;;26.77;58.17
50696;BME280;36665;51.786;21.594;2023-07-24T17:27:33;99045.43;;;26.32;57.91
50696;BME280;36665;51.786;21.594;2023-07-24T17:36:00;98871.86;;;25.93;57.90
50696;BME280;36665;51.786;21.594;2023-07-24T17:44:24;98707.00;;;25.57;57.78
50696;BME280;36665;51.786;21.594;2023-07-24T17:52:48;98546.02;;;25.21;57.53
50696;BME280;36665;51.786;21.594;2023-07-24T18:01:13;98396.33;;;24.88;57.52
50696;BME280;36665;51.786;21.594;2023-07-24T18:09:36;98255.48;;;24.57;57.50
50696;BME280;36665;51.786;21.594;2023-07-24T18:17:59;98134.23;;;24.30;57.32
50696;BME280;36665;51.786;21.594;2023-07-24T18:26:23;98027.30;;;24.06;57.29
50696;BME280;36665;51.786;21.594;2023-07-24T18:34:46;97904.29;;;23.78;57.09
50696;BME280;36665;51.786;21.594;2023-07-24T18:43:09;97742.95;;;23.41;56.91
50696;BME280;36665;51.786;21.594;2023-07-24T18:51:32;97583.89;;;23.04;56.82
50696;BME280;36665;51.786;21.594;2023-07-24T18:59:55;97535.00;;;22.93;57.03
50696;BME280;36665;51.786;21.594;2023-07-24T19:08:18;97451.23;;;22.75;56.93
50696;BME280;36665;51.786;21.594;2023-07-24T19:26:52;97125.18;;;22.00;56.82
50696;BME280;36665;51.786;21.594;2023-07-24T19:35:17;96996.18;;;21.69;56.58
50696;BME280;36665;51.786;21.594;2023-07-24T19:43:42;96867.76;;;21.38;56.55
50696;BME280;36665;51.786;21.594;2023-07-24T19:52:05;96783.39;;;21.18;56.45
50696;BME280;36665;51.786;21.594;2023-07-24T20:00:29;96723.88;;;21.04;56.44
50696;BME280;36665;51.786;21.594;2023-07-24T20:08:55;96653.10;;;20.88;56.48
50696;BME280;36665;51.786;21.594;2023-07-24T20:17:18;96605.64;;;20.76;56.43
50696;BME280;36665;51.786;21.594;2023-07-24T20:25:44;96571.73;;;20.69;56.39
50696;BME280;36665;51.786;21.594;2023-07-24T20:34:07;96539.73;;;20.62;56.31
50696;BME280;36665;51.786;21.594;2023-07-24T20:42:31;96495.14;;;20.51;56.27
50696;BME280;36665;51.786;21.594;2023-07-24T20:50:54;96439.88;;;20.38;56.21
50696;BME280;36665;51.786;21.594;2023-07-24T20:59:17;96391.44;;;20.26;56.14
50696;BME280;36665;51.786;21.594;2023-07-24T21:07:40;96347.54;;;20.16;56.19
50696;BME280;36665;51.786;21.594;2023-07-24T21:16:06;96302.89;;;20.06;56.25
50696;BME280;36665;51.786;21.594;2023-07-24T21:24:30;96227.97;;;19.87;56.10
50696;BME280;36665;51.786;21.594;2023-07-24T21:32:53;96153.36;;;19.70;56.14
50696;BME280;36665;51.786;21.594;2023-07-24T21:41:16;96123.63;;;19.64;56.16
50696;BME280;36665;51.786;21.594;2023-07-24T21:49:41;96125.87;;;19.63;56.36
50696;BME280;36665;51.786;21.594;2023-07-24T21:58:04;96126.46;;;19.64;55.99
50696;BME280;36665;51.786;21.594;2023-07-24T22:06:30;96127.05;;;19.64;56.16
50696;BME280;36665;51.786;21.594;2023-07-24T22:14:53;96113.48;;;19.62;56.19
50696;BME280;36665;51.786;21.594;2023-07-24T22:23:18;96108.64;;;19.60;56.21
50696;BME280;36665;51.786;21.594;2023-07-24T22:31:41;96105.66;;;19.60;56.22
50696;BME280;36665;51.786;21.594;2023-07-24T22:40:05;96107.90;;;19.60;56.29
50696;BME280;36665;51.786;21.594;2023-07-24T22:48:28;96104.84;;;19.59;56.13
50696;BME280;36665;51.786;21.594;2023-07-24T22:56:51;96094.48;;;19.57;56.37
50696;BME280;36665;51.786;21.594;2023-07-24T23:05:14;96084.85;;;19.54;56.35
50696;BME280;36665;51.786;21.594;2023-07-24T23:13:37;96065.23;;;19.50;56.35
50696;BME280;36665;51.786;21.594;2023-07-24T23:22:00;96025.98;;;19.40;56.21
50696;BME280;36665;51.786;21.594;2023-07-24T23:30:24;95980.60;;;19.29;56.40
50696;BME280;36665;51.786;21.594;2023-07-24T23:38:47;95946.70;;;19.20;56.16
50696;BME280;36665;51.786;21.594;2023-07-24T23:47:10;95926.95;;;19.16;56.33
50696;BME280;36665;51.786;21.594;2023-07-24T23:55:34;95924.17;;;19.14;56.29
